Latest Weather Observations for Edithburgh

IDS60801

Issued at 9:31 am CDT Sunday 28 November 2021 (issued every 10 minutes, with the page automatically refreshed every 10 minutes)

About weather observations | Map of weather stations | Latest weather observations for SA | Other Formats
Station Details ID: 022046 Name: EDITHBURGH Lat: -35.11 Lon: 137.74 Height: 6.0 m
Data from the previous 72 hours. | See also: Recent months at Edithburgh
Date/Time
CDT
Temp
°C
App
Temp
°C
Dew
Point
°C
Rel
Hum
%
Delta-T
°C
Wind Press
QNH
hPa
Press
MSL
hPa
Rain since
9am
mm
Dir  Spd
km/h
Gust
km/h
Spd
kts
Gust
kts
28/09:30am 18.3 15.3 11.8 66 3.6 SE 19 24 10 13 1021.9 1021.8 0.0
28/09:00am 18.1 15.3 12.5 70 3.1 SE 19 24 10 13 1021.9 1021.8 0.0
28/08:30am 18.1 15.6 13.4 74 2.6 SE 19 22 10 12 1021.8 1021.7 0.0
28/08:00am 17.1 14.3 12.6 75 2.5 SE 19 24 10 13 1021.7 1021.6 0.0
28/07:30am 16.5 13.6 13.0 80 1.9 SE 20 26 11 14 1021.5 1021.4 0.0
28/07:00am 16.1 12.9 13.0 82 1.7 SE 22 28 12 15 1021.0 1020.9 0.0
28/06:30am 15.6 12.2 12.4 81 1.7 SE 22 28 12 15 1020.9 1020.8 0.0
28/06:00am 14.8 13.2 12.7 87 1.1 SE 13 19 7 10 1021.0 1020.9 0.0
28/05:30am 14.9 13.0 12.9 88 1.1 SSE 15 19 8 10 1020.6 1020.5 0.0
28/05:00am 15.0 12.8 13.4 90 0.9 SSE 17 22 9 12 1020.6 1020.5 0.0
28/04:30am 15.1 12.4 12.8 86 1.3 SSE 19 24 10 13 1020.6 1020.5 0.0
28/04:00am 14.5 13.0 13.2 92 0.7 SSE 13 17 7 9 1020.3 1020.2 0.0
28/03:30am 14.4 13.2 12.8 90 0.9 SSE 11 15 6 8 1020.4 1020.3 0.0
28/03:00am 14.4 12.7 12.6 89 1.0 SSE 13 17 7 9 1020.3 1020.2 0.0
28/02:30am 14.7 12.6 12.4 86 1.2 SSE 15 17 8 9 1020.5 1020.4 0.0
28/02:00am 15.1 12.2 12.2 83 1.6 SSE 19 22 10 12 1020.7 1020.6 0.0
28/01:30am 15.1 12.0 12.2 83 1.6 SSE 20 28 11 15 1021.0 1020.9 0.0
28/01:00am 15.0 11.5 12.1 83 1.6 SSE 22 32 12 17 1021.6 1021.5 0.0
28/12:30am 15.1 11.9 11.9 81 1.7 SSE 20 28 11 15 1021.9 1021.8 0.0
28/12:00am 15.0 11.1 12.0 82 1.6 SSE 24 32 13 17 1022.3 1022.2 0.0
 
Date/Time
CDT
Temp
°C
App
Temp
°C
Dew
Point
°C
Rel
Hum
%
Delta-T
°C
Wind Press
QNH
hPa
Press
MSL
hPa
Rain since
9am
mm
Dir  Spd
km/h
Gust
km/h
Spd
kts
Gust
kts
27/11:30pm 15.1 10.4 12.1 82 1.6 SSE 28 35 15 19 1022.3 1022.2 0.0
27/11:00pm 15.0 9.9 11.8 81 1.7 SSE 30 41 16 22 1022.5 1022.4 0.0
27/10:30pm 15.1 9.9 11.7 80 1.8 SSE 30 41 16 22 1022.2 1022.1 0.0
27/10:00pm 15.0 9.9 11.8 81 1.7 SSE 30 39 16 21 1022.2 1022.1 0.0
27/09:30pm 15.0 10.3 12.1 83 1.6 SSE 28 41 15 22 1021.9 1021.8 0.0
27/09:00pm 15.0 9.3 11.8 81 1.7 SSE 33 43 18 23 1021.8 1021.7 0.0
27/08:30pm 15.1 9.4 11.7 80 1.8 SSE 33 43 18 23 1021.8 1021.7 0.0
27/08:00pm 15.3 9.1 11.3 77 2.1 SSE 35 44 19 24 1021.6 1021.5 0.0
27/07:30pm 15.7 9.8 11.1 74 2.4 SSE 33 46 18 25 1021.3 1021.2 0.0
27/07:00pm 16.2 10.4 11.6 74 2.5 SSE 33 46 18 25 1021.1 1021.0 0.0
27/06:30pm 16.6 10.6 10.9 69 3.0 SSE 33 43 18 23 1020.9 1020.8 0.0
27/06:00pm 17.0 10.5 10.4 65 3.5 SSE 35 46 19 25 1020.8 1020.7 0.0
27/05:30pm 17.1 9.9 10.7 66 3.4 SSE 39 52 21 28 1020.7 1020.6 0.0
27/05:00pm 17.8 11.2 11.4 66 3.5 SSE 37 46 20 25 1020.8 1020.7 0.0
27/04:30pm 18.1 11.9 11.4 65 3.6 SSE 35 46 19 25 1021.0 1020.9 0.0
27/04:00pm 18.3 12.0 10.9 62 4.0 SSE 35 46 19 25 1021.0 1020.9 0.0
27/03:30pm 18.5 12.5 10.8 61 4.1 SSE 33 46 18 25 1021.4 1021.3 0.0
27/03:00pm 18.7 13.0 11.0 61 4.2 SSE 32 41 17 22 1021.7 1021.6 0.0
27/02:30pm 19.5 14.4 10.5 56 4.8 SSE 28 37 15 20 1021.8 1021.7 0.0
27/02:00pm 18.0 12.4 10.1 60 4.2 SSE 30 39 16 21 1021.9 1021.8 0.0
27/01:30pm 18.1 12.6 10.7 62 4.0 SSE 30 39 16 21 1022.1 1022.0 0.0
27/01:00pm 18.2 12.6 10.1 59 4.3 SSE 30 35 16 19 1022.4 1022.3 0.0
27/12:30pm 18.2 13.2 9.5 57 4.6 SSE 26 32 14 17 1022.6 1022.5 0.0
27/12:00pm 18.2 13.2 9.5 57 4.6 SE 26 32 14 17 1022.9 1022.8 0.0
27/11:30am 18.0 13.5 9.9 59 4.3 SE 24 30 13 16 1022.8 1022.7 0.0
27/11:00am 17.9 13.4 10.0 60 4.2 SE 24 32 13 17 1023.1 1023.0 0.0
27/10:30am 16.9 12.5 10.3 65 3.5 SE 24 30 13 16 1023.3 1023.2 0.0
27/10:00am 17.7 13.0 10.6 63 3.8 SE 26 33 14 18 1023.3 1023.2 0.0
27/09:30am 17.7 11.8 11.0 65 3.6 SE 33 43 18 23 1023.3 1023.2 0.0
27/09:00am 16.9 11.6 11.2 69 3.1 SE 30 39 16 21 1023.2 1023.1 0.0
27/08:30am 16.3 11.3 11.0 71 2.8 SE 28 39 15 21 1023.0 1022.9 0.0
27/08:00am 16.0 11.4 11.2 73 2.6 SE 26 37 14 20 1022.6 1022.5 0.0
27/07:30am 15.4 10.5 11.2 76 2.2 SE 28 33 15 18 1022.5 1022.4 0.0
27/07:00am 15.4 10.4 11.0 75 2.3 SE 28 37 15 20 1022.3 1022.2 0.0
27/06:30am 14.6 10.0 11.0 79 1.9 SE 26 35 14 19 1021.9 1021.8 0.0
27/06:00am 14.5 8.7 10.9 79 1.9 SE 32 39 17 21 1021.5 1021.4 0.0
27/05:30am 14.7 9.7 10.9 78 2.0 SE 28 37 15 20 1021.2 1021.1 0.0
27/05:00am 14.7 10.1 11.1 79 1.9 SE 26 35 14 19 1021.1 1021.0 0.0
27/04:30am 14.9 9.5 10.9 77 2.1 SE 30 35 16 19 1020.8 1020.7 0.0
27/04:00am 15.2 9.8 11.0 76 2.2 SE 30 39 16 21 1020.7 1020.6 0.0
27/03:30am 15.4 10.0 10.8 74 2.4 SE 30 39 16 21 1020.6 1020.5 0.0
27/03:00am 15.4 10.5 11.4 77 2.1 SE 28 37 15 20 1020.6 1020.5 0.0
27/02:30am 15.1 9.7 10.9 76 2.2 SE 30 39 16 21 1020.6 1020.5 0.0
27/02:00am 15.0 10.0 11.0 77 2.1 SE 28 39 15 21 1020.6 1020.5 0.0
27/01:30am 15.0 10.5 11.4 79 1.9 SE 26 37 14 20 1020.8 1020.7 0.0
27/01:00am 15.2 9.9 11.4 78 2.0 SE 30 35 16 19 1021.1 1021.0 0.0
27/12:30am 15.1 10.2 11.3 78 2.0 SE 28 39 15 21 1021.1 1021.0 0.0
27/12:00am 15.1 9.9 11.5 79 1.9 SE 30 39 16 21 1021.4 1021.3 0.0
 
Date/Time
CDT
Temp
°C
App
Temp
°C
Dew
Point
°C
Rel
Hum
%
Delta-T
°C
Wind Press
QNH
hPa
Press
MSL
hPa
Rain since
9am
mm
Dir  Spd
km/h
Gust
km/h
Spd
kts
Gust
kts
26/11:30pm 14.8 9.2 11.6 81 1.7 SSE 32 41 17 22 1021.3 1021.2 0.0
26/11:00pm 14.5 7.9 11.3 81 1.7 SSE 37 48 20 26 1021.3 1021.2 0.0
26/10:30pm 14.6 8.4 11.4 81 1.7 SSE 35 46 19 25 1021.4 1021.3 0.0
26/10:00pm 14.8 8.5 11.0 78 2.0 SSE 35 48 19 26 1021.3 1021.2 0.0
26/09:30pm 14.6 7.5 10.8 78 2.0 SSE 39 52 21 28 1021.1 1021.0 0.0
26/09:00pm 14.5 7.7 10.7 78 2.0 SSE 37 50 20 27 1020.9 1020.8 0.0
26/08:30pm 14.6 7.4 10.6 77 2.1 SSE 39 52 21 28 1020.8 1020.7 0.0
26/08:00pm 14.6 7.7 10.2 75 2.3 SSE 37 52 20 28 1020.7 1020.6 0.0
26/07:43pm 14.7 8.1 10.1 74 2.4 SSE 35 54 19 29 1020.7 1020.6 0.0
26/07:30pm 14.8 7.0 9.8 72 2.6 SSE 41 57 22 31 1020.4 1020.3 0.0
26/07:00pm 15.0 8.0 9.8 71 2.7 SSE 37 50 20 27 1020.3 1020.2 0.0
26/06:30pm 15.4 7.8 8.9 65 3.3 SSE 39 50 21 27 1019.9 1019.8 0.0
26/06:00pm 16.0 8.8 9.0 63 3.6 SSE 37 50 20 27 1019.6 1019.6 0.0
26/05:30pm 15.9 8.7 9.3 65 3.4 SSE 37 50 20 27 1019.5 1019.5 0.0
26/05:00pm 16.3 8.3 7.3 55 4.5 SSE 39 52 21 28 1019.4 1019.4 0.0
26/04:30pm 16.6 8.1 7.0 53 4.7 SSE 41 52 22 28 1019.7 1019.7 0.0
26/04:00pm 16.2 7.6 6.3 52 4.8 SSE 41 56 22 30 1019.7 1019.7 0.0
26/03:51pm 16.8 9.1 7.2 53 4.8 SSE 37 56 20 30 1019.7 1019.7 0.0
26/03:30pm 16.8 7.8 6.6 51 5.0 SSE 43 56 23 30 1020.0 1019.9 0.0
26/03:00pm 17.5 9.0 7.0 50 5.2 SSE 41 56 22 30 1020.0 1019.9 0.0
26/02:30pm 17.2 8.3 7.0 51 5.1 SSE 43 54 23 29 1020.1 1020.0 0.0
26/02:00pm 17.5 9.5 5.8 46 5.7 SSE 37 50 20 27 1020.2 1020.1 0.0
26/01:30pm 16.7 8.6 6.8 52 4.9 SSE 39 50 21 27 1020.4 1020.3 0.0
26/01:00pm 16.3 8.0 5.9 50 5.0 SSE 39 50 21 27 1020.4 1020.3 0.0
26/12:30pm 16.6 8.3 5.9 49 5.2 SE 39 54 21 29 1020.7 1020.6 0.0
26/12:00pm 16.0 7.9 7.2 56 4.3 SSE 39 54 21 29 1020.7 1020.6 0.0
26/11:30am 15.2 8.5 8.0 62 3.6 SSE 33 50 18 27 1021.0 1020.9 0.0
26/11:29am 15.4 8.6 6.9 57 4.2 SSE 32 50 17 27 1021.0 1020.9 0.0
26/11:00am 16.0 8.4 5.9 51 4.9 SE 35 50 19 27 1021.2 1021.1 0.0
26/10:30am 15.0 7.8 5.8 54 4.4 SSE 33 46 18 25 1021.3 1021.2 0.0
26/10:00am 14.9 7.8 6.5 57 4.1 SSE 33 50 18 27 1021.1 1021.0 0.0
26/09:30am 14.1 7.2 6.5 60 3.6 SE 32 43 17 23 1021.3 1021.2 0.0
26/09:00am 14.7 6.8 4.4 50 4.7 SE 35 48 19 26 1021.3 1021.2 0.0
26/08:30am 14.2 6.2 5.6 56 4.1 SSE 37 50 20 27 1021.3 1021.2 0.0
26/08:00am 14.3 6.7 5.9 57 4.0 SSE 35 46 19 25 1021.0 1020.9 0.0
26/07:30am 14.3 6.7 7.4 63 3.4 SSE 37 50 20 27 1020.5 1020.4 0.0
26/07:00am 14.4 6.4 9.0 70 2.7 SSE 41 54 22 29 1019.7 1019.7 0.0
26/06:36am 14.1 7.0 9.7 75 2.3 SSE 37 56 20 30 1019.4 1019.4 0.0
26/06:30am 14.1 6.0 9.9 76 2.2 SSE 43 56 23 30 1019.3 1019.3 0.0
26/06:00am 13.2 7.1 11.8 91 0.7 SSE 35 48 19 26 1019.1 1019.1 0.0
26/05:30am 14.4 7.4 9.8 74 2.4 SSE 37 48 20 26 1018.7 1018.7 0.0
26/05:00am 14.9 8.5 9.5 70 2.8 SSE 33 50 18 27 1018.5 1018.5 0.0
26/04:30am 14.4 8.3 11.7 84 1.4 SSE 35 52 19 28 1018.3 1018.3 0.0
26/04:00am 14.6 7.1 10.8 78 2.0 SSE 41 52 22 28 1017.8 1017.8 0.0
26/03:30am 14.6 7.7 11.6 82 1.6 SSE 39 50 21 27 1017.7 1017.7 0.0
26/03:18am 14.5 8.2 12.4 87 1.1 SSE 37 56 20 30 1017.5 1017.5 0.0
26/03:00am 14.4 9.1 13.0 91 0.8 SSE 33 48 18 26 1017.6 1017.6 0.0
26/02:30am 14.8 9.6 12.7 87 1.1 SSE 32 44 17 24 1017.5 1017.5 0.0
26/02:00am 14.6 8.7 12.5 87 1.1 SSE 35 48 19 26 1017.4 1017.4 0.0
26/01:30am 14.2 8.2 13.2 94 0.6 SSE 37 59 20 32 1017.7 1017.7 0.0
26/01:22am 14.9 9.1 12.8 87 1.2 SSE 35 59 19 32 1017.7 1017.7 0.0
26/01:00am 15.1 8.8 12.2 83 1.6 SSE 37 52 20 28 1017.8 1017.8 0.0
26/12:30am 15.0 9.0 12.1 83 1.6 SSE 35 50 19 27 1018.0 1018.0 0.0
26/12:00am 15.6 10.1 12.0 79 2.0 SSE 32 43 17 23 1017.9 1017.9 0.0
 
Date/Time
CDT
Temp
°C
App
Temp
°C
Dew
Point
°C
Rel
Hum
%
Delta-T
°C
Wind Press
QNH
hPa
Press
MSL
hPa
Rain since
9am
mm
Dir  Spd
km/h
Gust
km/h
Spd
kts
Gust
kts
25/11:30pm 15.5 9.3 11.3 76 2.2 SSE 35 46 19 25 1018.0 1018.0 0.0
25/11:00pm 15.8 10.2 11.6 76 2.3 SSE 32 46 17 25 1017.9 1017.9 0.0
25/10:30pm 15.6 9.9 11.8 78 2.1 SSE 33 46 18 25 1017.9 1017.9 0.0
25/10:00pm 15.5 9.3 11.5 77 2.2 SSE 35 46 19 25 1017.7 1017.7 0.0
25/09:30pm 15.9 10.8 11.9 77 2.2 SSE 30 43 16 23 1017.5 1017.5 0.0
25/09:00pm 15.8 9.5 11.0 73 2.6 SSE 35 48 19 26 1017.2 1017.2 0.0
25/08:30pm 15.7 9.7 10.9 73 2.6 SSE 33 48 18 26 1016.8 1016.8 0.0
25/08:00pm 15.9 9.2 10.9 72 2.7 SSE 37 48 20 26 1016.2 1016.2 0.0
25/07:30pm 15.9 9.7 10.0 68 3.1 SSE 33 44 18 24 1016.1 1016.1 0.0
25/07:00pm 16.1 9.4 9.8 66 3.3 S 35 46 19 25 1015.7 1015.7 0.0
25/06:30pm 16.1 9.1 10.0 67 3.2 SSE 37 46 20 25 1015.3 1015.3 0.0
25/06:00pm 16.7 10.9 10.8 68 3.2 SSE 32 46 17 25 1015.0 1015.0 0.0
25/05:30pm 16.8 10.3 10.4 66 3.4 S 35 46 19 25 1015.0 1015.0 0.0
25/05:00pm 17.4 10.6 10.5 64 3.7 S 37 46 20 25 1014.9 1014.9 0.0
25/04:30pm 17.2 10.4 10.6 65 3.5 S 37 48 20 26 1014.8 1014.8 0.0
25/04:00pm 17.5 9.9 10.4 63 3.8 S 41 52 22 28 1014.7 1014.7 0.0
25/03:30pm 18.4 11.8 11.2 63 3.9 S 37 48 20 26 1014.6 1014.6 0.0
25/03:00pm 18.8 12.0 10.6 59 4.4 S 37 50 20 27 1014.6 1014.6 0.0
25/02:30pm 18.3 11.4 10.4 60 4.2 S 37 48 20 26 1014.7 1014.7 0.0
25/02:00pm 18.3 11.5 10.7 61 4.1 S 37 48 20 26 1014.9 1014.9 0.0
25/01:30pm 19.6 14.3 12.4 63 4.0 S 32 43 17 23 1014.8 1014.8 0.0
25/01:00pm 19.0 12.5 11.6 62 4.1 S 37 46 20 25 1014.8 1014.8 0.0
25/12:30pm 18.6 12.4 11.4 63 3.9 S 35 48 19 26 1014.8 1014.8 0.0
25/12:00pm 18.6 12.5 11.9 65 3.7 S 35 46 19 25 1014.9 1014.9 0.0
25/11:30am 17.8 12.2 12.0 69 3.2 SSE 33 48 18 26 1014.9 1014.9 0.0
25/11:00am 17.8 12.5 12.5 71 2.9 SSE 32 44 17 24 1015.1 1015.1 0.0
25/10:30am 16.9 11.6 12.4 75 2.5 SSE 32 41 17 22 1015.0 1015.0 0.0
25/10:00am 16.8 11.4 12.3 75 2.5 SSE 32 44 17 24 1014.7 1014.7 0.0

Other formats

Comma delimited format used in spreadsheet applications
http://www.bom.gov.au/fwo/IDS60801/IDS60801.94809.axf

JavaScript Object Notation format (JSON) in row-major order
http://www.bom.gov.au/fwo/IDS60801/IDS60801.94809.json

Data quality

Most of these data are generated automatically and are frequently updated. Quality checks on data are not normally performed. It is possible for incorrect values to appear. Refer to information at About Latest Weather Observations and please check the disclaimer before using these data.